Time;durP1;ratioP1;P1;durP2;ratioP2;P2;SDS_P1;SDS_P2;PMS_P1;PMS_P2;Temp;Humidity;BMP_temperature;BMP_pressure;BME280_temperature;BME280_humidity;BME280_pressure;Samples;Min_cycle;Max_cycle;Signal;HPM_P1;HPM_P2
2023/02/26 00:00:19;;;;;;;8.45;7.75;;;;;;;-1.36;76.84;97729.50;4992529;28;20415;-75
2023/02/26 00:02:46;;;;;;;9.00;8.15;;;;;;;-1.31;76.44;97721.88;5020350;28;20033;-74
2023/02/26 00:05:12;;;;;;;8.05;7.47;;;;;;;-1.46;77.03;97735.06;5018314;28;20458;-74
2023/02/26 00:07:38;;;;;;;8.57;8.07;;;;;;;-1.39;76.84;97733.34;5006400;28;20069;-74
2023/02/26 00:10:05;;;;;;;7.88;7.35;;;;;;;-1.68;77.45;97736.72;5007741;28;20095;-75
2023/02/26 00:12:31;;;;;;;10.40;9.55;;;;;;;-1.69;77.92;97735.13;5004387;28;20488;-74
2023/02/26 00:14:56;;;;;;;11.15;10.25;;;;;;;-1.54;77.95;97743.06;5016560;28;20032;-75
2023/02/26 00:17:40;;;;;;;12.77;11.80;;;;;;;-1.61;78.28;97742.16;5012317;28;20044;-74
2023/02/26 00:20:07;;;;;;;11.13;10.18;;;;;;;-1.78;78.24;97741.47;5011619;28;20124;-75
2023/02/26 00:22:33;;;;;;;10.98;10.27;;;;;;;-1.91;78.74;97743.88;5022627;28;20083;-75
2023/02/26 00:24:58;;;;;;;12.73;11.73;;;;;;;-1.99;79.11;97743.94;5017984;28;20439;-75
2023/02/26 00:27:24;;;;;;;12.23;11.57;;;;;;;-1.77;78.79;97744.91;5022080;28;20037;-74
2023/02/26 00:29:49;;;;;;;11.95;10.95;;;;;;;-1.87;78.02;97753.09;5024931;28;20037;-73
2023/02/26 00:32:16;;;;;;;11.65;10.93;;;;;;;-1.93;78.04;97753.78;5021622;28;20051;-73
2023/02/26 00:34:44;;;;;;;12.13;11.43;;;;;;;-2.00;78.19;97750.19;5017942;28;20045;-73
2023/02/26 00:37:27;;;;;;;13.30;12.38;;;;;;;-1.95;78.56;97755.78;5019997;28;20060;-75
2023/02/26 00:40:44;;;;;;;12.60;11.60;;;;;;;-2.02;78.87;97760.13;5014693;28;20052;-74
2023/02/26 00:43:21;;;;;;;11.80;11.07;;;;;;;-1.94;78.27;97757.44;4998170;28;20045;-73
2023/02/26 00:46:05;;;;;;;13.38;12.43;;;;;;;-2.02;78.11;97760.13;5017788;28;20041;-74
2023/02/26 00:48:39;;;;;;;12.88;12.18;;;;;;;-2.02;78.73;97760.13;4994803;28;20045;-74
2023/02/26 00:51:22;;;;;;;13.32;12.38;;;;;;;-2.06;78.35;97758.00;5007889;28;20045;-73
2023/02/26 00:54:00;;;;;;;14.23;13.43;;;;;;;-1.92;78.74;97752.78;5024059;28;20033;-74
2023/02/26 00:56:25;;;;;;;11.60;10.65;;;;;;;-1.95;77.73;97761.06;5000442;28;20029;-73
2023/02/26 00:58:50;;;;;;;10.95;10.25;;;;;;;-1.81;77.09;97757.63;4992266;28;20359;-73
2023/02/26 01:01:16;;;;;;;10.32;9.73;;;;;;;-1.83;77.18;97751.72;5011004;28;20033;-73
2023/02/26 01:03:41;;;;;;;9.48;8.68;;;;;;;-2.05;77.06;97757.81;5025540;28;20028;-74
2023/02/26 01:06:12;;;;;;;10.48;9.75;;;;;;;-1.86;77.06;97753.88;5019157;28;20038;-73
2023/02/26 01:08:53;;;;;;;10.88;10.05;;;;;;;-1.94;77.39;97761.88;5010856;28;20409;-74
2023/02/26 01:11:19;;;;;;;10.90;10.20;;;;;;;-2.08;77.56;97754.72;5002126;28;20057;-74
2023/02/26 01:13:45;;;;;;;9.07;8.38;;;;;;;-1.99;76.95;97749.22;5030287;28;20404;-74
2023/02/26 01:16:13;;;;;;;10.43;9.60;;;;;;;-1.90;76.68;97748.16;5018943;28;20405;-74
2023/02/26 01:18:49;;;;;;;9.80;9.13;;;;;;;-1.84;76.52;97751.88;4993298;28;20481;-74
2023/02/26 01:21:18;;;;;;;9.98;9.20;;;;;;;-2.08;76.88;97752.91;4999608;28;20041;-74
2023/02/26 01:23:46;;;;;;;10.43;9.65;;;;;;;-1.92;77.45;97750.16;5016830;28;20029;-74
2023/02/26 01:26:19;;;;;;;11.05;10.45;;;;;;;-2.13;77.99;97747.34;5014154;28;20033;-74
2023/02/26 01:28:44;;;;;;;13.55;12.70;;;;;;;-2.14;77.87;97745.69;5010222;28;20041;-75
2023/02/26 01:31:29;;;;;;;12.57;11.68;;;;;;;-1.96;76.81;97750.69;5003139;28;20024;-75
2023/02/26 01:33:59;;;;;;;11.00;10.30;;;;;;;-2.01;76.82;97753.84;5008677;28;20406;-74
2023/02/26 01:36:27;;;;;;;14.18;13.07;;;;;;;-2.12;77.36;97754.25;5002975;28;20432;-74
2023/02/26 01:38:52;;;;;;;12.10;11.27;;;;;;;-1.99;76.86;97754.50;5016978;28;20104;-74
2023/02/26 01:41:37;;;;;;;12.65;11.77;;;;;;;-2.11;77.67;97755.91;5022406;28;20264;-74
2023/02/26 01:44:26;;;;;;;15.80;14.80;;;;;;;-2.21;78.71;97765.84;5001681;28;20034;-74
2023/02/26 01:47:04;;;;;;;12.57;11.65;;;;;;;-2.07;77.94;97762.47;5016908;28;20177;-74
2023/02/26 01:49:30;;;;;;;13.10;12.20;;;;;;;-2.13;77.48;97757.91;5030129;28;20042;-74
2023/02/26 01:52:03;;;;;;;13.48;12.63;;;;;;;-2.11;78.56;97747.97;5012860;28;20131;-74
2023/02/26 01:54:31;;;;;;;12.90;11.98;;;;;;;-2.02;77.76;97768.03;4987926;28;20046;-74
2023/02/26 01:57:09;;;;;;;12.90;12.07;;;;;;;-1.95;77.27;97771.59;5011084;28;20026;-74
2023/02/26 01:59:38;;;;;;;12.52;11.63;;;;;;;-2.01;77.68;97772.31;5028361;28;20030;-74
2023/02/26 02:02:06;;;;;;;11.43;10.60;;;;;;;-1.91;77.42;97766.81;5013604;28;20037;-74
2023/02/26 02:04:33;;;;;;;12.75;11.95;;;;;;;-1.96;78.01;97772.59;5005822;28;20037;-74
2023/02/26 02:07:00;;;;;;;11.80;11.10;;;;;;;-1.84;77.79;97768.53;5013867;28;20401;-74
2023/02/26 02:09:26;;;;;;;11.63;10.77;;;;;;;-1.93;78.11;97774.88;5026060;28;20026;-73
2023/02/26 02:12:05;;;;;;;12.90;12.10;;;;;;;-1.96;78.73;97780.50;5019411;28;20493;-73
2023/02/26 02:14:55;;;;;;;11.90;11.02;;;;;;;-1.83;77.74;97780.75;5016502;28;20034;-74
2023/02/26 02:17:49;;;;;;;12.30;11.25;;;;;;;-1.84;77.91;97781.72;5008235;28;20052;-74
2023/02/26 02:20:51;;;;;;;13.88;12.98;;;;;;;-1.80;77.99;97785.69;5015043;28;20040;-74
2023/02/26 02:23:35;;;;;;;11.73;11.02;;;;;;;-1.71;77.40;97779.34;5033018;28;20029;-74
2023/02/26 02:26:16;;;;;;;11.68;10.90;;;;;;;-1.69;77.49;97787.06;5016752;28;20413;-74
2023/02/26 02:29:12;;;;;;;13.18;12.48;;;;;;;-1.44;77.13;97791.97;5021116;28;20053;-74
2023/02/26 02:31:43;;;;;;;11.38;10.68;;;;;;;-1.72;77.87;97793.53;4997501;28;20048;-74
2023/02/26 02:34:17;;;;;;;11.02;10.43;;;;;;;-1.65;77.24;97789.19;5033026;28;20120;-74
2023/02/26 02:37:04;;;;;;;12.45;11.65;;;;;;;-1.62;77.74;97796.75;5000684;28;20037;-74
2023/02/26 02:39:36;;;;;;;12.32;11.52;;;;;;;-1.67;77.22;97793.81;5013386;28;20415;-74
2023/02/26 02:42:20;;;;;;;11.30;10.60;;;;;;;-1.84;77.63;97799.38;5006256;28;20120;-73
2023/02/26 02:44:49;;;;;;;12.07;11.35;;;;;;;-1.85;77.41;97793.31;5012487;28;20409;-74
2023/02/26 02:47:18;;;;;;;12.15;11.43;;;;;;;-2.03;78.28;97800.66;5007315;28;20030;-74
2023/02/26 02:49:47;;;;;;;12.95;12.13;;;;;;;-1.88;78.34;97793.66;5009223;28;20029;-74
2023/02/26 02:52:25;;;;;;;11.90;10.98;;;;;;;-1.95;77.91;97798.00;4993511;28;20034;-74
2023/02/26 02:54:57;;;;;;;12.93;12.13;;;;;;;-2.02;78.31;97796.22;5006004;28;20052;-74
2023/02/26 02:57:27;;;;;;;12.93;12.23;;;;;;;-2.01;79.06;97798.69;5012913;28;20105;-74
2023/02/26 03:00:04;;;;;;;13.88;13.07;;;;;;;-1.95;77.98;97805.91;5004132;28;20030;-74
2023/02/26 03:02:48;;;;;;;11.88;11.25;;;;;;;-2.06;77.75;97800.22;5009909;28;20080;-73
2023/02/26 03:05:14;;;;;;;10.98;10.27;;;;;;;-2.12;78.32;97822.81;5026080;28;20044;-73
2023/02/26 03:08:03;;;;;;;12.75;11.95;;;;;;;-2.07;78.07;97820.47;5021261;28;20049;-73
2023/02/26 03:10:28;;;;;;;11.73;10.82;;;;;;;-1.84;77.83;97829.22;5019294;28;20489;-73
2023/02/26 03:12:54;;;;;;;12.27;11.45;;;;;;;-1.98;78.28;97819.44;5012590;28;20025;-73
2023/02/26 03:15:30;;;;;;;12.40;11.55;;;;;;;-1.99;77.98;97820.44;5032197;28;20041;-73
2023/02/26 03:18:05;;;;;;;11.90;11.20;;;;;;;-1.85;78.28;97829.41;4996617;28;20034;-73
2023/02/26 03:20:45;;;;;;;12.82;12.13;;;;;;;-1.83;78.02;97828.25;5000469;28;20033;-73
2023/02/26 03:23:21;;;;;;;11.63;10.82;;;;;;;-1.77;77.54;97824.91;5015059;28;20037;-74
2023/02/26 03:25:53;;;;;;;13.23;12.32;;;;;;;-1.80;78.14;97830.53;5027063;28;20378;-74
2023/02/26 03:28:25;;;;;;;12.93;11.93;;;;;;;-1.84;77.64;97829.22;5012231;28;20030;-74
2023/02/26 03:31:07;;;;;;;11.48;10.50;;;;;;;-1.73;77.80;97839.41;5000613;28;20029;-75
2023/02/26 03:34:02;;;;;;;13.82;12.82;;;;;;;-1.56;78.13;97838.25;5000334;28;20037;-74
2023/02/26 03:36:52;;;;;;;13.02;11.98;;;;;;;-1.69;77.11;97845.97;5024724;28;20049;-74
2023/02/26 03:39:30;;;;;;;12.10;11.20;;;;;;;-1.64;76.71;97851.53;5014666;28;20034;-74
2023/02/26 03:41:58;;;;;;;12.45;11.73;;;;;;;-1.55;77.95;97861.03;5012438;28;20403;-73
2023/02/26 03:44:39;;;;;;;11.40;10.70;;;;;;;-1.60;76.82;97852.81;4992219;28;20080;-75
2023/02/26 03:47:11;;;;;;;9.88;9.27;;;;;;;-1.78;76.65;97852.31;5022596;28;20033;-74
2023/02/26 03:49:49;;;;;;;10.90;10.02;;;;;;;-1.70;77.55;97865.41;4999486;28;20386;-74
2023/02/26 03:52:15;;;;;;;11.23;10.32;;;;;;;-1.94;77.52;97865.59;5009627;28;20033;-74
2023/02/26 03:54:55;;;;;;;9.90;9.30;;;;;;;-1.91;77.44;97872.34;5006702;28;20054;-74
2023/02/26 03:57:41;;;;;;;10.18;9.38;;;;;;;-1.91;78.01;97867.88;4998569;28;20536;-74
2023/02/26 04:00:21;;;;;;;9.90;8.98;;;;;;;-1.95;77.69;97877.13;4999020;28;20631;-73
2023/02/26 04:02:59;;;;;;;10.23;9.52;;;;;;;-1.84;77.69;97873.25;5031479;28;20033;-73
2023/02/26 04:05:27;;;;;;;12.52;11.50;;;;;;;-1.84;77.50;97868.81;5001800;28;20064;-72
2023/02/26 04:07:52;;;;;;;11.60;10.70;;;;;;;-1.66;77.24;97871.19;5011558;28;20549;-74
2023/02/26 04:10:21;;;;;;;13.10;11.98;;;;;;;-1.62;76.83;97878.56;5008586;28;20033;-73
2023/02/26 04:12:46;;;;;;;10.95;10.15;;;;;;;-1.63;77.25;97874.28;5022237;28;20028;-72
2023/02/26 04:15:12;;;;;;;10.73;9.88;;;;;;;-1.92;77.11;97879.44;5014776;28;20037;-73
2023/02/26 04:17:39;;;;;;;10.30;9.65;;;;;;;-1.88;77.89;97872.81;5011631;28;20025;-74
2023/02/26 04:20:07;;;;;;;11.30;10.38;;;;;;;-2.03;78.18;97881.63;5012366;28;20026;-73
2023/02/26 04:22:33;;;;;;;11.63;10.68;;;;;;;-2.06;77.73;97884.63;5011624;28;20025;-74
2023/02/26 04:24:58;;;;;;;12.10;11.27;;;;;;;-1.83;77.23;97886.31;5028389;28;20037;-73
2023/02/26 04:27:23;;;;;;;11.15;10.07;;;;;;;-2.06;78.48;97885.44;5011451;28;20060;-73
2023/02/26 04:29:49;;;;;;;11.75;10.98;;;;;;;-1.72;77.67;97888.53;5028266;28;20374;-73
2023/02/26 04:32:14;;;;;;;11.68;10.90;;;;;;;-1.89;77.37;97889.63;5003934;28;20029;-73
2023/02/26 04:34:40;;;;;;;11.00;10.25;;;;;;;-1.76;77.48;97894.34;5008500;28;20529;-73
2023/02/26 04:37:06;;;;;;;12.05;10.90;;;;;;;-1.99;77.85;97894.31;4985801;28;20034;-74
2023/02/26 04:39:31;;;;;;;11.13;10.23;;;;;;;-1.89;78.00;97892.25;5024348;28;20072;-74
2023/02/26 04:41:57;;;;;;;12.10;11.23;;;;;;;-1.71;77.62;97900.75;5004914;28;20054;-73
2023/02/26 04:44:22;;;;;;;10.20;9.55;;;;;;;-1.43;76.22;97909.81;5014116;28;20092;-74
2023/02/26 04:46:48;;;;;;;10.93;10.13;;;;;;;-1.62;77.32;97904.16;5004558;28;20026;-73
2023/02/26 04:49:13;;;;;;;11.27;10.38;;;;;;;-1.91;77.61;97904.81;5014274;28;20029;-73
2023/02/26 04:51:42;;;;;;;10.20;9.40;;;;;;;-1.82;77.76;97914.31;5010961;28;20112;-74
2023/02/26 04:54:07;;;;;;;11.63;10.73;;;;;;;-1.78;77.94;97910.34;5026765;28;20160;-73
2023/02/26 04:56:33;;;;;;;10.75;10.02;;;;;;;-2.10;78.13;97921.06;5004364;28;20021;-74
2023/02/26 04:59:00;;;;;;;12.02;11.23;;;;;;;-2.08;78.26;97918.25;5014308;28;20030;-73
2023/02/26 05:01:28;;;;;;;11.55;10.85;;;;;;;-2.08;78.48;97919.09;5004032;28;20025;-74
2023/02/26 05:03:54;;;;;;;12.27;11.55;;;;;;;-1.82;78.14;97922.22;5007955;28;20026;-74
2023/02/26 05:06:20;;;;;;;10.60;9.90;;;;;;;-1.84;77.06;97924.22;5004694;28;20131;-74
2023/02/26 05:08:45;;;;;;;12.20;11.30;;;;;;;-1.86;77.21;97938.59;5017065;28;20497;-73
2023/02/26 05:11:11;;;;;;;11.52;10.70;;;;;;;-1.99;78.45;97936.53;5010706;28;20026;-74
2023/02/26 05:13:37;;;;;;;12.15;11.45;;;;;;;-1.82;78.34;97940.69;4990935;28;20040;-74
2023/02/26 05:16:02;;;;;;;12.98;12.13;;;;;;;-1.83;77.64;97947.00;5004876;28;20393;-74
2023/02/26 05:18:28;;;;;;;13.73;12.57;;;;;;;-1.91;77.93;97936.47;5010807;28;20556;-74
2023/02/26 05:20:54;;;;;;;12.98;11.88;;;;;;;-2.15;78.39;97949.78;4994295;28;20117;-74
2023/02/26 05:23:20;;;;;;;11.57;10.88;;;;;;;-2.07;78.59;97955.00;5009522;28;20503;-74
2023/02/26 05:25:46;;;;;;;13.05;12.13;;;;;;;-1.83;78.25;97949.63;5021565;28;20026;-73
2023/02/26 05:28:13;;;;;;;11.43;10.73;;;;;;;-1.90;78.11;97947.84;5014161;28;20124;-73
2023/02/26 05:30:39;;;;;;;13.93;12.93;;;;;;;-1.95;78.65;97953.66;5010605;28;20109;-74
2023/02/26 05:33:04;;;;;;;12.65;11.85;;;;;;;-1.89;78.38;97960.06;4997760;28;20029;-74
2023/02/26 05:35:30;;;;;;;12.52;11.63;;;;;;;-1.69;78.17;97956.81;5020002;28;20022;-73
2023/02/26 05:37:55;;;;;;;14.55;13.65;;;;;;;-1.88;78.46;97959.88;4998005;28;20042;-74
2023/02/26 05:40:21;;;;;;;14.35;13.40;;;;;;;-1.73;78.42;97971.38;5019939;28;20025;-74
2023/02/26 05:42:47;;;;;;;12.55;11.65;;;;;;;-1.72;78.26;97977.44;5023466;28;20034;-74
2023/02/26 05:45:12;;;;;;;11.98;11.27;;;;;;;-1.77;77.34;97967.41;5011737;28;20540;-74
2023/02/26 05:47:38;;;;;;;14.75;13.85;;;;;;;-1.72;77.98;97983.53;5023692;28;20121;-74
2023/02/26 05:50:04;;;;;;;12.43;11.63;;;;;;;-1.89;78.24;97981.16;5021024;28;20088;-74
2023/02/26 05:52:30;;;;;;;13.60;12.50;;;;;;;-2.01;78.71;97977.25;5009413;28;20091;-74
2023/02/26 05:54:55;;;;;;;12.10;11.30;;;;;;;-1.99;78.56;97978.72;4993896;28;20022;-73
2023/02/26 05:57:21;;;;;;;12.32;11.32;;;;;;;-2.02;78.42;97981.69;5024742;28;20034;-73
2023/02/26 05:59:47;;;;;;;12.25;11.55;;;;;;;-2.08;78.92;97971.84;5010303;28;20064;-73
2023/02/26 06:02:12;;;;;;;11.80;10.98;;;;;;;-2.00;78.34;97981.53;5015909;28;20064;-73
2023/02/26 06:04:37;;;;;;;12.90;12.13;;;;;;;-2.06;78.96;97985.69;5019240;28;20056;-73
2023/02/26 06:07:03;;;;;;;13.48;12.63;;;;;;;-2.10;78.93;98000.19;5008619;28;20046;-73
2023/02/26 06:09:28;;;;;;;13.73;12.82;;;;;;;-2.05;78.49;98002.34;5008289;28;20029;-73
2023/02/26 06:11:55;;;;;;;13.65;12.75;;;;;;;-1.90;78.36;98006.72;5013564;28;20056;-73
2023/02/26 06:14:21;;;;;;;11.88;10.90;;;;;;;-1.90;78.08;98011.19;5024150;28;20120;-73
2023/02/26 06:16:46;;;;;;;13.88;12.93;;;;;;;-1.92;78.86;98019.28;5016563;28;20164;-73
2023/02/26 06:19:11;;;;;;;12.80;12.00;;;;;;;-1.90;78.15;98022.56;5014948;28;20068;-73
2023/02/26 06:21:37;;;;;;;13.32;12.52;;;;;;;-1.81;78.49;98018.88;5028110;28;20125;-73
2023/02/26 06:24:02;;;;;;;12.63;11.73;;;;;;;-1.75;78.08;98031.38;5024397;28;20026;-74
2023/02/26 06:26:28;;;;;;;13.18;12.13;;;;;;;-1.66;77.73;98035.66;5016789;28;20041;-74
2023/02/26 06:28:53;;;;;;;13.02;12.13;;;;;;;-1.93;78.32;98033.44;5023653;28;20022;-74
2023/02/26 06:31:18;;;;;;;14.57;13.55;;;;;;;-1.68;78.51;98036.84;5026837;28;20135;-73
2023/02/26 06:33:44;;;;;;;13.52;12.63;;;;;;;-1.50;77.57;98046.16;5022820;28;20052;-73
2023/02/26 06:36:09;;;;;;;13.90;13.18;;;;;;;-1.71;77.75;98048.56;5020018;28;20045;-73
2023/02/26 06:38:35;;;;;;;12.05;11.35;;;;;;;-1.82;77.66;98048.91;5023819;28;20029;-74
2023/02/26 06:41:00;;;;;;;13.40;12.50;;;;;;;-1.52;77.07;98052.59;5017111;28;20109;-74
2023/02/26 06:43:26;;;;;;;15.13;13.82;;;;;;;-1.55;77.48;98059.03;5013191;28;20025;-75
2023/02/26 06:45:51;;;;;;;12.32;11.43;;;;;;;-1.70;77.61;98070.47;5012066;28;20034;-74
2023/02/26 06:48:16;;;;;;;13.23;12.23;;;;;;;-1.67;78.48;98078.88;5023642;28;20116;-74
2023/02/26 06:50:42;;;;;;;11.48;10.77;;;;;;;-1.55;77.80;98064.31;5010043;28;20040;-74
2023/02/26 06:53:07;;;;;;;11.93;11.23;;;;;;;-1.71;77.19;98080.22;5023630;28;20025;-75
2023/02/26 06:55:33;;;;;;;11.90;11.25;;;;;;;-1.46;77.56;98089.69;5015859;28;20132;-74
2023/02/26 06:57:58;;;;;;;12.27;11.57;;;;;;;-1.67;77.62;98097.34;5013119;28;20440;-75
2023/02/26 07:00:24;;;;;;;10.40;9.82;;;;;;;-1.65;77.46;98100.66;5011546;28;20413;-75
2023/02/26 07:02:50;;;;;;;9.43;8.82;;;;;;;-1.38;77.20;98106.50;5007069;28;20061;-74
2023/02/26 07:05:16;;;;;;;10.20;9.60;;;;;;;-1.30;77.05;98109.09;4995785;28;20588;-74
2023/02/26 07:07:42;;;;;;;10.68;10.13;;;;;;;-1.25;76.57;98107.59;5023748;28;20109;-74
2023/02/26 07:10:09;;;;;;;10.75;10.25;;;;;;;-1.03;76.27;98111.28;5009956;28;20103;-75
2023/02/26 07:12:34;;;;;;;10.05;9.55;;;;;;;-1.20;77.15;98120.28;5023192;28;20396;-75
2023/02/26 07:14:59;;;;;;;9.63;9.13;;;;;;;-1.10;76.84;98131.47;5017154;28;20041;-74
2023/02/26 07:17:25;;;;;;;10.50;10.00;;;;;;;-1.13;77.42;98131.81;5005055;28;20025;-75
2023/02/26 07:19:51;;;;;;;11.05;10.45;;;;;;;-1.32;77.02;98127.75;5014190;28;20121;-74
2023/02/26 07:22:18;;;;;;;9.88;9.38;;;;;;;-1.23;77.07;98136.47;5012506;28;20498;-74
2023/02/26 07:24:44;;;;;;;10.55;9.95;;;;;;;-1.26;77.36;98137.63;5009453;28;20041;-73
2023/02/26 07:27:09;;;;;;;10.20;9.70;;;;;;;-0.99;77.17;98133.72;5012621;28;20029;-76
2023/02/26 07:29:35;;;;;;;11.70;11.10;;;;;;;-1.24;77.18;98145.41;5009513;28;20068;-75
2023/02/26 07:32:01;;;;;;;10.55;10.05;;;;;;;-1.05;76.93;98150.28;5020912;28;20124;-74
2023/02/26 07:34:26;;;;;;;55.85;42.40;;;;;;;-1.35;77.43;98156.34;4997412;28;20026;-74
2023/02/26 07:36:52;;;;;;;48.38;41.65;;;;;;;-1.32;77.58;98158.63;5006872;28;20710;-75
2023/02/26 07:39:17;;;;;;;13.30;12.50;;;;;;;-1.19;77.32;98158.91;5008621;28;20378;-74
2023/02/26 07:41:43;;;;;;;13.13;12.43;;;;;;;-1.10;77.64;98163.16;5003258;28;20028;-74
2023/02/26 07:44:13;;;;;;;11.23;10.63;;;;;;;-1.23;77.53;98162.88;5018145;28;20029;-74
2023/02/26 07:46:38;;;;;;;10.23;9.63;;;;;;;-0.96;76.07;98167.72;5024480;28;20034;-74
2023/02/26 07:49:04;;;;;;;8.75;8.25;;;;;;;-0.89;75.65;98163.41;5024663;28;20033;-75
2023/02/26 07:51:29;;;;;;;8.45;7.97;;;;;;;-0.79;75.55;98172.75;5017523;28;20055;-75
2023/02/26 07:53:55;;;;;;;9.02;8.63;;;;;;;-0.64;75.27;98175.47;5012459;28;20084;-74
2023/02/26 07:56:20;;;;;;;10.52;9.95;;;;;;;-0.52;75.91;98176.72;5011829;28;20030;-74
2023/02/26 07:58:45;;;;;;;9.05;8.55;;;;;;;-0.44;74.74;98176.66;4995402;28;20536;-75
2023/02/26 08:01:11;;;;;;;8.32;7.82;;;;;;;-0.73;74.97;98187.94;5009498;28;20033;-75
2023/02/26 08:03:36;;;;;;;9.38;8.88;;;;;;;-0.48;75.02;98191.25;5026425;28;20458;-74
2023/02/26 08:06:03;;;;;;;8.25;7.85;;;;;;;-0.21;74.24;98185.41;5030349;28;20099;-75
2023/02/26 08:08:29;;;;;;;9.00;8.60;;;;;;;-0.28;74.68;98192.41;5019623;28;20022;-75
2023/02/26 08:10:54;;;;;;;7.88;7.47;;;;;;;-0.50;75.06;98198.53;5021925;28;20151;-74
2023/02/26 08:13:20;;;;;;;6.10;5.80;;;;;;;-0.59;74.08;98198.75;5016689;28;20104;-74
2023/02/26 08:15:46;;;;;;;7.97;7.47;;;;;;;-0.53;75.33;98208.63;4994948;28;20034;-74
2023/02/26 08:18:12;;;;;;;7.60;7.20;;;;;;;-0.58;74.88;98206.50;5008144;28;20029;-74
2023/02/26 08:20:38;;;;;;;8.52;8.02;;;;;;;-0.46;75.31;98210.41;5019426;28;20034;-74
2023/02/26 08:23:03;;;;;;;7.25;6.85;;;;;;;-0.47;73.79;98200.84;5017321;28;20026;-74
2023/02/26 08:25:29;;;;;;;7.05;6.65;;;;;;;-0.25;74.06;98212.41;5011134;28;20132;-74
2023/02/26 08:27:56;;;;;;;5.95;5.65;;;;;;;-0.45;73.41;98206.78;5029367;28;20021;-75
2023/02/26 08:30:22;;;;;;;6.28;5.88;;;;;;;-0.39;73.48;98215.81;5018574;28;20045;-75
2023/02/26 08:32:48;;;;;;;5.03;4.72;;;;;;;-0.43;73.24;98219.81;5017325;28;20030;-74
2023/02/26 08:35:14;;;;;;;5.18;4.88;;;;;;;-0.20;72.09;98205.59;5022416;28;20069;-74
2023/02/26 08:37:39;;;;;;;4.55;4.18;;;;;;;-0.24;72.57;98214.91;5024045;28;20101;-74
2023/02/26 08:40:06;;;;;;;4.97;4.68;;;;;;;-0.36;72.64;98229.53;5019045;28;20122;-74
2023/02/26 08:42:32;;;;;;;4.60;4.30;;;;;;;-0.30;72.36;98242.03;5017579;28;20033;-74
2023/02/26 08:44:57;;;;;;;4.90;4.60;;;;;;;-0.14;71.60;98235.84;5021761;28;20091;-74
2023/02/26 08:47:23;;;;;;;3.85;3.55;;;;;;;-0.13;70.61;98238.31;5025974;28;20389;-74
2023/02/26 08:49:48;;;;;;;3.60;3.40;;;;;;;-0.17;71.12;98239.66;5030201;28;20044;-75
2023/02/26 08:52:14;;;;;;;4.85;4.05;;;;;;;-0.10;72.29;98237.13;5017071;28;20033;-75
2023/02/26 08:54:39;;;;;;;4.72;3.97;;;;;;;-0.22;70.34;98255.22;5022090;28;20054;-74
2023/02/26 08:57:05;;;;;;;3.53;3.28;;;;;;;-0.18;71.43;98255.69;5024052;28;20040;-74
2023/02/26 08:59:30;;;;;;;4.15;3.85;;;;;;;0.01;71.60;98260.53;5001686;28;20044;-74
2023/02/26 09:01:55;;;;;;;4.22;3.92;;;;;;;0.21;70.70;98252.94;5011384;28;20495;-74
2023/02/26 09:04:21;;;;;;;4.43;4.22;;;;;;;0.55;70.33;98248.00;5016159;28;20037;-74
2023/02/26 09:06:46;;;;;;;4.07;3.65;;;;;;;0.64;70.26;98265.47;5016536;28;20033;-74
2023/02/26 09:09:12;;;;;;;3.85;3.55;;;;;;;0.53;70.69;98274.69;5016517;28;20574;-74
2023/02/26 09:11:37;;;;;;;3.17;2.97;;;;;;;0.26;69.62;98275.22;5009163;28;20068;-74
2023/02/26 09:14:04;;;;;;;3.47;3.28;;;;;;;0.32;70.05;98289.59;5009558;28;20040;-74
2023/02/26 09:16:30;;;;;;;2.95;2.72;;;;;;;0.45;69.45;98295.09;4994935;28;20113;-74
2023/02/26 09:18:56;;;;;;;2.88;2.67;;;;;;;0.26;69.03;98291.13;5010342;28;20490;-74
2023/02/26 09:21:22;;;;;;;2.42;2.22;;;;;;;0.26;67.63;98298.22;5005953;28;20076;-74
2023/02/26 09:23:48;;;;;;;3.65;2.92;;;;;;;0.29;70.05;98305.84;5021673;28;20038;-74
2023/02/26 09:26:15;;;;;;;2.38;2.20;;;;;;;0.38;68.49;98302.94;5007092;28;20099;-74
2023/02/26 09:28:40;;;;;;;2.67;2.25;;;;;;;0.46;67.99;98313.50;5017906;28;20046;-74
2023/02/26 09:31:06;;;;;;;2.75;2.50;;;;;;;0.17;68.59;98325.78;5015312;28;20022;-74
2023/02/26 09:33:32;;;;;;;2.70;2.50;;;;;;;0.19;67.95;98315.84;4996381;28;20045;-75
2023/02/26 09:35:57;;;;;;;2.50;2.30;;;;;;;0.33;68.50;98333.59;5006564;28;20029;-75
2023/02/26 09:38:23;;;;;;;2.47;2.30;;;;;;;0.16;68.71;98332.09;5013045;28;20034;-74
2023/02/26 09:40:56;;;;;;;2.53;2.33;;;;;;;0.12;68.74;98333.44;5010847;28;20049;-74
2023/02/26 09:43:47;;;;;;;2.20;2.10;;;;;;;-0.04;69.13;98343.13;5016939;28;20091;-75
2023/02/26 09:46:23;;;;;;;2.50;2.30;;;;;;;0.07;68.60;98349.03;5040791;28;20037;-76
2023/02/26 09:48:50;;;;;;;2.67;2.47;;;;;;;0.21;69.21;98350.91;5033763;28;20091;-75
2023/02/26 09:51:18;;;;;;;3.15;2.75;;;;;;;0.35;68.59;98358.09;5026998;28;20101;-75
2023/02/26 09:53:44;;;;;;;2.70;2.50;;;;;;;0.36;68.87;98351.78;4997705;28;20643;-75
2023/02/26 09:56:18;;;;;;;2.65;2.45;;;;;;;0.12;68.53;98351.97;5026506;28;20029;-75
2023/02/26 09:58:44;;;;;;;2.72;2.50;;;;;;;0.14;68.91;98349.97;5010676;28;20082;-75
2023/02/26 10:01:28;;;;;;;2.42;2.15;;;;;;;0.20;69.05;98347.44;5013848;28;20034;-75
2023/02/26 10:04:02;;;;;;;2.53;2.00;;;;;;;0.51;65.93;98365.94;5011577;28;20041;-75
2023/02/26 10:06:30;;;;;;;1.77;1.55;;;;;;;0.53;65.66;98371.88;5009540;28;20041;-75
2023/02/26 10:09:01;;;;;;;2.63;1.50;;;;;;;0.82;65.89;98368.50;5030592;28;20022;-75
2023/02/26 10:11:33;;;;;;;1.85;1.75;;;;;;;1.09;66.01;98373.22;5020231;28;20503;-75
2023/02/26 10:14:05;;;;;;;1.77;1.67;;;;;;;0.90;64.56;98374.56;5013430;28;20523;-74
2023/02/26 10:16:37;;;;;;;2.33;1.90;;;;;;;1.23;63.33;98375.91;5010060;28;20088;-75
2023/02/26 10:19:11;;;;;;;2.45;1.83;;;;;;;1.45;64.37;98384.00;4997103;28;20030;-76
2023/02/26 10:21:47;;;;;;;2.33;1.50;;;;;;;1.40;62.47;98361.47;5013678;28;20120;-75
2023/02/26 10:24:22;;;;;;;2.15;1.85;;;;;;;1.62;64.14;98377.47;5021587;28;20105;-75
2023/02/26 10:27:02;;;;;;;2.30;1.75;;;;;;;1.73;62.60;98379.66;5012711;28;20045;-74
2023/02/26 10:29:42;;;;;;;2.03;1.40;;;;;;;1.54;60.94;98380.22;5009351;28;20041;-75
2023/02/26 10:32:23;;;;;;;1.70;1.60;;;;;;;1.26;63.36;98380.84;5023132;28;20038;-75
2023/02/26 10:35:10;;;;;;;2.60;2.40;;;;;;;1.05;63.67;98395.81;5011396;28;20038;-75
2023/02/26 10:37:54;;;;;;;1.80;1.70;;;;;;;1.26;63.29;98391.44;5013354;28;20034;-75
2023/02/26 10:40:28;;;;;;;1.60;1.50;;;;;;;1.16;63.22;98395.38;5023139;28;20041;-75
2023/02/26 10:43:00;;;;;;;3.22;1.85;;;;;;;1.68;63.39;98395.34;5014881;28;20468;-75
2023/02/26 10:45:44;;;;;;;2.33;2.13;;;;;;;1.21;62.99;98388.50;5021291;28;20040;-75
2023/02/26 10:48:54;;;;;;;1.95;1.85;;;;;;;1.53;62.29;98399.81;5014167;28;20034;-75
2023/02/26 10:51:32;;;;;;;1.95;1.75;;;;;;;1.65;61.84;98403.66;4966722;28;20045;-75
2023/02/26 10:54:14;;;;;;;1.77;1.63;;;;;;;1.40;61.85;98401.25;4998737;28;20034;-74
2023/02/26 10:56:40;;;;;;;1.73;1.60;;;;;;;1.18;62.31;98410.09;5029246;28;20042;-74
2023/02/26 10:59:05;;;;;;;2.28;2.08;;;;;;;0.92;63.26;98399.06;5027059;28;20050;-75
2023/02/26 11:01:31;;;;;;;1.65;1.55;;;;;;;0.76;62.53;98419.56;5024587;28;20528;-75
2023/02/26 11:04:02;;;;;;;2.20;2.00;;;;;;;0.99;64.58;98417.72;5015600;28;20022;-74
2023/02/26 11:06:32;;;;;;;2.35;2.10;;;;;;;0.96;63.01;98421.56;4996115;28;20041;-74
2023/02/26 11:08:58;;;;;;;2.10;1.77;;;;;;;1.36;63.81;98415.91;4996128;28;20049;-74
2023/02/26 11:11:45;;;;;;;2.80;2.42;;;;;;;1.63;64.80;98416.28;5006615;28;20022;-75
2023/02/26 11:14:11;;;;;;;1.98;1.88;;;;;;;1.36;62.68;98415.91;4995859;28;20520;-75
2023/02/26 11:16:42;;;;;;;2.33;1.65;;;;;;;1.19;63.19;98409.09;5011127;28;20029;-76
2023/02/26 11:19:07;;;;;;;2.40;2.20;;;;;;;1.40;63.59;98419.81;5010905;28;20038;-75
2023/02/26 11:21:37;;;;;;;2.58;1.80;;;;;;;1.59;62.29;98417.66;5029495;28;20083;-75
2023/02/26 11:24:18;;;;;;;4.70;1.73;;;;;;;1.33;62.89;98418.09;5005056;28;20489;-75
2023/02/26 11:26:46;;;;;;;2.22;1.60;;;;;;;1.20;60.85;98437.28;5022745;28;20029;-75
2023/02/26 11:29:15;;;;;;;2.13;1.58;;;;;;;1.38;61.02;98416.53;5011655;28;20034;-75
2023/02/26 11:31:41;;;;;;;2.55;1.75;;;;;;;1.44;62.26;98419.47;4997837;28;20548;-75
2023/02/26 11:34:10;;;;;;;1.70;1.55;;;;;;;1.35;60.21;98416.88;5011661;28;20036;-75
2023/02/26 11:36:38;;;;;;;2.53;1.90;;;;;;;1.77;63.41;98432.22;5008744;28;20065;-74
2023/02/26 11:39:15;;;;;;;3.53;1.85;;;;;;;1.78;61.57;98433.03;5019880;28;20017;-75